Time;durP1;ratioP1;P1;durP2;ratioP2;P2;SDS_P1;SDS_P2;PMS_P1;PMS_P2;Temp;Humidity;BMP_temperature;BMP_pressure;BME280_temperature;BME280_humidity;BME280_pressure;Samples;Min_cycle;Max_cycle;Signal;HPM_P1;HPM_P2
2022/10/19 00:01:41;;;;;;;;;;;8.60;99.90;;;;;;5076718;28;19911;-72
2022/10/19 00:04:06;;;;;;;;;;;8.60;99.90;;;;;;5075967;28;19908;-70
2022/10/19 00:06:34;;;;;;;;;;;8.60;99.90;;;;;;5075987;28;19905;-74
2022/10/19 00:09:10;;;;;;;;;;;8.60;99.90;;;;;;5076078;28;20017;-73
2022/10/19 00:11:39;;;;;;;;;;;8.60;99.90;;;;;;5076062;28;20003;-71
2022/10/19 00:14:08;;;;;;;;;;;8.60;99.90;;;;;;5075336;28;20683;-71
2022/10/19 00:16:36;;;;;;;;;;;8.70;99.90;;;;;;5058231;28;19908;-71
2022/10/19 00:19:04;;;;;;;;;;;8.70;99.90;;;;;;5075412;28;19913;-70
2022/10/19 00:21:30;;;;;;;;;;;8.70;99.90;;;;;;5076181;28;19908;-72
2022/10/19 00:23:55;;;;;;;;;;;8.70;99.90;;;;;;5057649;28;19904;-69
2022/10/19 00:26:21;;;;;;;;;;;8.70;99.90;;;;;;5075725;28;19908;-69
2022/10/19 00:28:46;;;;;;;;;;;8.70;99.90;;;;;;5075289;28;19905;-69
2022/10/19 00:31:16;;;;;;;;;;;8.70;99.90;;;;;;5075170;28;19912;-70
2022/10/19 00:33:43;;;;;;;;;;;8.80;99.90;;;;;;5075503;28;19911;-70
2022/10/19 00:36:16;;;;;;;;;;;8.70;99.90;;;;;;5075602;28;19912;-71
2022/10/19 00:38:41;;;;;;;;;;;8.70;99.90;;;;;;5057129;28;20023;-68
2022/10/19 00:41:07;;;;;;;;;;;8.70;99.90;;;;;;5075014;28;19991;-70
2022/10/19 00:43:49;;;;;;;;;;;8.70;99.90;;;;;;5057337;28;19909;-69
2022/10/19 00:46:15;;;;;;;;;;;8.70;99.90;;;;;;5075594;28;19954;-69
2022/10/19 00:48:40;;;;;;;;;;;8.60;99.90;;;;;;5075558;28;19913;-69
2022/10/19 00:51:06;;;;;;;;;;;8.60;99.90;;;;;;5057050;28;20395;-68
2022/10/19 00:53:31;;;;;;;;;;;8.50;99.90;;;;;;5075209;28;19927;-69
2022/10/19 00:55:58;;;;;;;;;;;8.50;99.90;;;;;;5074782;28;19904;-69
2022/10/19 00:58:24;;;;;;;;;;;8.50;99.90;;;;;;5074693;28;19951;-69
2022/10/19 01:00:49;;;;;;;;;;;8.50;99.90;;;;;;5057045;28;20038;-69
2022/10/19 01:03:15;;;;;;;;;;;8.50;99.90;;;;;;5074882;28;19938;-69
2022/10/19 01:05:41;;;;;;;;;;;8.50;99.90;;;;;;5074976;28;19908;-69
2022/10/19 01:08:07;;;;;;;;;;;8.50;99.90;;;;;;5074839;28;20248;-70
2022/10/19 01:10:39;;;;;;;;;;;8.50;99.90;;;;;;5056732;28;20347;-69
2022/10/19 01:13:11;;;;;;;;;;;8.40;99.90;;;;;;5074451;28;19939;-71
2022/10/19 01:15:42;;;;;;;;;;;8.40;99.90;;;;;;5075230;28;19966;-69
2022/10/19 01:18:19;;;;;;;;;;;8.30;99.90;;;;;;5074632;28;19971;-70
2022/10/19 01:21:03;;;;;;;;;;;8.30;99.90;;;;;;5074512;28;19948;-67
2022/10/19 01:23:47;;;;;;;;;;;8.30;99.90;;;;;;5074586;28;19909;-70
2022/10/19 01:26:22;;;;;;;;;;;8.20;99.90;;;;;;5074483;28;20256;-72
2022/10/19 01:29:06;;;;;;;;;;;8.20;99.90;;;;;;5074068;28;19939;-72
2022/10/19 01:31:34;;;;;;;;;;;8.20;99.90;;;;;;5056385;28;19908;-73
2022/10/19 01:34:18;;;;;;;;;;;8.30;99.90;;;;;;5074580;28;19904;-72
2022/10/19 01:37:04;;;;;;;;;;;8.30;99.90;;;;;;5073945;28;20114;-70
2022/10/19 01:39:38;;;;;;;;;;;8.40;99.90;;;;;;5042571;28;19912;-72
2022/10/19 01:42:23;;;;;;;;;;;8.50;99.90;;;;;;5074290;28;20415;-70
2022/10/19 01:44:51;;;;;;;;;;;8.40;99.90;;;;;;5074138;28;19905;-72
2022/10/19 01:47:21;;;;;;;;;;;8.40;99.90;;;;;;5074071;28;20316;-71
2022/10/19 01:49:55;;;;;;;;;;;8.50;99.90;;;;;;5074317;28;19915;-73
2022/10/19 01:52:22;;;;;;;;;;;8.50;99.90;;;;;;5073362;28;19908;-71
2022/10/19 01:54:49;;;;;;;;;;;8.50;99.90;;;;;;5074395;28;20351;-70
2022/10/19 01:57:31;;;;;;;;;;;8.60;99.90;;;;;;5073750;28;19913;-73
2022/10/19 01:59:56;;;;;;;;;;;8.60;99.90;;;;;;5073401;28;20003;-73
2022/10/19 02:02:24;;;;;;;;;;;8.50;99.90;;;;;;5073837;28;20408;-73
2022/10/19 02:04:50;;;;;;;;;;;8.60;99.90;;;;;;5073570;28;19905;-72
2022/10/19 02:07:17;;;;;;;;;;;8.60;99.90;;;;;;5073625;28;20007;-69
2022/10/19 02:09:42;;;;;;;;;;;8.50;99.90;;;;;;5073963;28;20336;-72
2022/10/19 02:12:09;;;;;;;;;;;8.60;99.90;;;;;;5073540;28;20019;-72
2022/10/19 02:14:38;;;;;;;;;;;8.50;99.90;;;;;;5073496;28;19920;-70
2022/10/19 02:17:14;;;;;;;;;;;8.50;99.90;;;;;;5073507;28;19904;-71
2022/10/19 02:19:40;;;;;;;;;;;8.50;99.90;;;;;;5073431;28;19991;-71
2022/10/19 02:22:05;;;;;;;;;;;8.50;99.90;;;;;;5073407;28;20003;-70
2022/10/19 02:24:31;;;;;;;;;;;8.40;99.90;;;;;;5073555;28;19909;-72
2022/10/19 02:26:57;;;;;;;;;;;8.40;99.90;;;;;;5073225;28;19916;-69
2022/10/19 02:29:23;;;;;;;;;;;8.40;99.90;;;;;;5073398;28;20361;-70
2022/10/19 02:31:48;;;;;;;;;;;8.30;99.90;;;;;;5073212;28;20383;-71
2022/10/19 02:34:14;;;;;;;;;;;8.30;99.90;;;;;;5073219;28;19912;-70
2022/10/19 02:36:39;;;;;;;;;;;8.20;99.90;;;;;;5072906;28;19904;-71
2022/10/19 02:39:05;;;;;;;;;;;8.20;99.90;;;;;;5073255;28;19917;-71
2022/10/19 02:41:34;;;;;;;;;;;8.10;99.90;;;;;;5072661;28;20260;-68
2022/10/19 02:44:12;;;;;;;;;;;8.10;99.90;;;;;;5073147;28;19927;-68
2022/10/19 02:46:41;;;;;;;;;;;8.10;99.90;;;;;;5073167;28;19958;-70
2022/10/19 02:49:07;;;;;;;;;;;8.00;99.90;;;;;;5073016;28;19985;-71
2022/10/19 02:51:34;;;;;;;;;;;8.00;99.90;;;;;;5072996;28;19999;-69
2022/10/19 02:53:59;;;;;;;;;;;7.90;99.90;;;;;;5072851;28;19904;-70
2022/10/19 02:56:25;;;;;;;;;;;7.90;99.90;;;;;;5072994;28;19904;-71
2022/10/19 02:58:50;;;;;;;;;;;7.90;99.90;;;;;;5072960;28;19914;-72
2022/10/19 03:01:16;;;;;;;;;;;7.90;99.90;;;;;;5072871;28;19928;-69
2022/10/19 03:03:41;;;;;;;;;;;7.80;99.90;;;;;;5072517;28;19939;-69
2022/10/19 03:06:07;;;;;;;;;;;7.80;99.90;;;;;;5072953;28;19916;-70
2022/10/19 03:08:32;;;;;;;;;;;7.90;99.90;;;;;;5072374;28;20022;-69
2022/10/19 03:10:58;;;;;;;;;;;7.90;99.90;;;;;;5072802;28;20385;-69
2022/10/19 03:13:23;;;;;;;;;;;7.90;99.90;;;;;;5051157;28;19916;-70
2022/10/19 03:15:49;;;;;;;;;;;7.80;99.90;;;;;;5052764;28;20321;-71
2022/10/19 03:18:14;;;;;;;;;;;7.80;99.90;;;;;;5052623;28;20002;-68
2022/10/19 03:20:40;;;;;;;;;;;7.90;99.90;;;;;;5052717;28;19966;-68
2022/10/19 03:23:05;;;;;;;;;;;7.80;99.90;;;;;;5052703;28;19909;-70
2022/10/19 03:25:31;;;;;;;;;;;7.90;99.90;;;;;;5053039;28;20032;-72
2022/10/19 03:27:56;;;;;;;;;;;7.90;99.90;;;;;;5052645;28;19905;-71
2022/10/19 03:30:22;;;;;;;;;;;7.90;99.90;;;;;;5052324;28;19943;-70
2022/10/19 03:32:47;;;;;;;;;;;7.90;99.90;;;;;;5052224;28;20352;-71
2022/10/19 03:35:13;;;;;;;;;;;7.90;99.90;;;;;;5052638;28;19964;-70
2022/10/19 03:37:38;;;;;;;;;;;7.90;99.90;;;;;;5052610;28;19919;-71
2022/10/19 03:40:04;;;;;;;;;;;7.80;99.90;;;;;;5052892;28;19905;-69
2022/10/19 03:42:29;;;;;;;;;;;7.80;99.90;;;;;;5052346;28;20359;-71
2022/10/19 03:44:55;;;;;;;;;;;7.80;99.90;;;;;;5052553;28;19912;-70
2022/10/19 03:47:20;;;;;;;;;;;7.80;99.90;;;;;;5052462;28;19904;-72
2022/10/19 03:49:46;;;;;;;;;;;7.80;99.90;;;;;;5052691;28;19911;-71
2022/10/19 03:52:11;;;;;;;;;;;7.90;99.90;;;;;;5051955;28;20209;-69
2022/10/19 03:54:37;;;;;;;;;;;7.80;99.90;;;;;;5052300;28;20678;-73
2022/10/19 03:57:02;;;;;;;;;;;7.80;99.90;;;;;;5051861;28;19913;-71
2022/10/19 03:59:28;;;;;;;;;;;7.80;99.90;;;;;;5050813;28;19956;-69
2022/10/19 04:01:53;;;;;;;;;;;7.80;99.90;;;;;;5052361;28;20348;-69
2022/10/19 04:04:19;;;;;;;;;;;7.70;99.90;;;;;;5052351;28;19959;-72
2022/10/19 04:06:45;;;;;;;;;;;7.70;99.90;;;;;;5052188;28;20112;-71
2022/10/19 04:09:13;;;;;;;;;;;7.70;99.90;;;;;;5052296;28;19955;-70
2022/10/19 04:11:38;;;;;;;;;;;7.70;99.90;;;;;;5050151;28;19939;-73
2022/10/19 04:14:04;;;;;;;;;;;7.60;99.90;;;;;;5065513;28;19955;-70
2022/10/19 04:16:29;;;;;;;;;;;7.60;99.90;;;;;;5074858;28;19958;-68
2022/10/19 04:18:55;;;;;;;;;;;7.70;99.90;;;;;;5075926;28;19916;-70
2022/10/19 04:21:25;;;;;;;;;;;7.70;99.90;;;;;;5057603;28;19955;-73
2022/10/19 04:23:52;;;;;;;;;;;7.80;99.90;;;;;;5075816;28;19971;-69
2022/10/19 04:26:18;;;;;;;;;;;7.80;99.90;;;;;;5075753;28;19911;-68
2022/10/19 04:28:43;;;;;;;;;;;7.80;99.90;;;;;;5075886;28;19909;-69
2022/10/19 04:31:09;;;;;;;;;;;7.90;99.90;;;;;;5075773;28;19909;-69
2022/10/19 04:33:34;;;;;;;;;;;7.90;99.90;;;;;;5075776;28;19905;-71
2022/10/19 04:36:01;;;;;;;;;;;7.90;99.90;;;;;;5075353;28;19945;-72
2022/10/19 04:38:27;;;;;;;;;;;7.90;99.90;;;;;;5075173;28;20421;-69
2022/10/19 04:40:54;;;;;;;;;;;7.80;99.90;;;;;;5075816;28;20335;-69
2022/10/19 04:43:20;;;;;;;;;;;7.80;99.90;;;;;;5075364;28;20397;-69
2022/10/19 04:45:46;;;;;;;;;;;7.80;99.90;;;;;;5075326;28;19908;-71
2022/10/19 04:48:11;;;;;;;;;;;7.80;99.90;;;;;;5075008;28;19904;-72
2022/10/19 04:50:37;;;;;;;;;;;7.90;99.90;;;;;;5075524;28;19911;-69
2022/10/19 04:53:02;;;;;;;;;;;7.90;99.90;;;;;;5074957;28;20309;-71
2022/10/19 04:55:28;;;;;;;;;;;7.90;99.90;;;;;;5075100;28;20351;-71
2022/10/19 04:57:53;;;;;;;;;;;7.90;99.90;;;;;;5075068;28;19913;-69
2022/10/19 05:00:18;;;;;;;;;;;7.90;99.90;;;;;;5075029;28;19916;-70
2022/10/19 05:02:44;;;;;;;;;;;7.90;99.90;;;;;;5075107;28;19967;-70
2022/10/19 05:05:10;;;;;;;;;;;7.90;99.90;;;;;;5074709;28;20268;-71
2022/10/19 05:07:36;;;;;;;;;;;7.90;99.90;;;;;;5056984;28;19960;-71
2022/10/19 05:10:02;;;;;;;;;;;7.90;99.90;;;;;;5075098;28;19905;-67
2022/10/19 05:12:27;;;;;;;;;;;7.90;99.90;;;;;;5075441;28;20287;-69
2022/10/19 05:14:53;;;;;;;;;;;7.80;99.90;;;;;;5075006;28;19963;-69
2022/10/19 05:17:18;;;;;;;;;;;7.80;99.90;;;;;;5074616;28;20244;-70
2022/10/19 05:19:44;;;;;;;;;;;7.70;99.90;;;;;;5074911;28;19914;-69
2022/10/19 05:22:09;;;;;;;;;;;7.70;99.90;;;;;;5074586;28;19970;-70
2022/10/19 05:24:34;;;;;;;;;;;7.60;99.90;;;;;;5074713;28;19999;-70
2022/10/19 05:27:00;;;;;;;;;;;7.60;99.90;;;;;;5073381;28;19950;-70
2022/10/19 05:29:25;;;;;;;;;;;7.60;99.90;;;;;;5075003;28;19909;-69
2022/10/19 05:31:51;;;;;;;;;;;7.50;99.90;;;;;;5074613;28;20287;-71
2022/10/19 05:34:16;;;;;;;;;;;7.50;99.90;;;;;;5074769;28;19911;-68
2022/10/19 05:36:42;;;;;;;;;;;7.40;99.90;;;;;;5074757;28;20438;-72
2022/10/19 05:39:10;;;;;;;;;;;7.40;99.90;;;;;;5074516;28;19912;-70
2022/10/19 05:41:36;;;;;;;;;;;7.40;99.90;;;;;;5074420;28;19911;-69
2022/10/19 05:44:02;;;;;;;;;;;7.30;99.90;;;;;;5074468;28;19958;-69
2022/10/19 05:46:28;;;;;;;;;;;7.30;99.90;;;;;;5074253;28;19904;-71
2022/10/19 05:48:55;;;;;;;;;;;7.30;99.90;;;;;;5074128;28;19905;-70
2022/10/19 05:51:21;;;;;;;;;;;7.20;99.90;;;;;;5056094;28;19904;-69
2022/10/19 05:53:47;;;;;;;;;;;7.20;99.90;;;;;;5074128;28;20332;-69
2022/10/19 05:56:14;;;;;;;;;;;7.20;99.90;;;;;;5073777;28;19909;-70
2022/10/19 05:58:40;;;;;;;;;;;7.20;99.90;;;;;;5074032;28;19960;-69
2022/10/19 06:01:07;;;;;;;;;;;7.20;99.90;;;;;;5074055;28;19997;-71
2022/10/19 06:03:32;;;;;;;;;;;7.20;99.90;;;;;;5073822;28;19950;-72
2022/10/19 06:06:00;;;;;;;;;;;7.20;99.90;;;;;;5073640;28;19904;-71
2022/10/19 06:08:26;;;;;;;;;;;7.30;99.90;;;;;;5055626;28;19908;-71
2022/10/19 06:10:51;;;;;;;;;;;7.20;99.90;;;;;;5073891;28;19905;-72
2022/10/19 06:13:18;;;;;;;;;;;7.30;99.90;;;;;;5073670;28;19917;-69
2022/10/19 06:15:43;;;;;;;;;;;7.30;99.90;;;;;;5073482;28;19908;-72
2022/10/19 06:18:10;;;;;;;;;;;7.30;99.90;;;;;;5055397;28;20402;-71
2022/10/19 06:20:39;;;;;;;;;;;7.40;99.90;;;;;;5055419;28;19908;-70
2022/10/19 06:23:05;;;;;;;;;;;7.50;99.90;;;;;;5073315;28;19970;-71
2022/10/19 06:25:32;;;;;;;;;;;7.50;99.90;;;;;;5073401;28;20360;-71
2022/10/19 06:27:58;;;;;;;;;;;7.50;99.90;;;;;;5073415;28;19905;-70
2022/10/19 06:30:23;;;;;;;;;;;7.50;99.90;;;;;;5073582;28;19912;-72
2022/10/19 06:32:48;;;;;;;;;;;7.50;99.90;;;;;;5073494;28;19904;-70
2022/10/19 06:35:15;;;;;;;;;;;7.50;99.90;;;;;;5073486;28;19905;-70
2022/10/19 06:37:40;;;;;;;;;;;7.50;99.90;;;;;;5073445;28;19916;-70
2022/10/19 06:40:06;;;;;;;;;;;7.50;99.90;;;;;;5055257;28;19908;-69
2022/10/19 06:42:32;;;;;;;;;;;7.50;99.90;;;;;;5073653;28;19927;-72
2022/10/19 06:44:57;;;;;;;;;;;7.60;99.90;;;;;;5073061;28;19991;-70
2022/10/19 06:47:29;;;;;;;;;;;7.60;99.90;;;;;;5072544;28;19908;-68
2022/10/19 06:49:55;;;;;;;;;;;7.70;99.90;;;;;;5072993;28;20402;-70
2022/10/19 06:52:21;;;;;;;;;;;7.70;99.90;;;;;;5072743;28;19909;-70
2022/10/19 06:54:46;;;;;;;;;;;7.70;99.90;;;;;;5073140;28;20332;-70
2022/10/19 06:57:12;;;;;;;;;;;7.80;99.90;;;;;;5072883;28;20354;-71
2022/10/19 06:59:37;;;;;;;;;;;7.90;99.90;;;;;;5073316;28;19904;-71
2022/10/19 07:02:03;;;;;;;;;;;7.90;99.90;;;;;;5054895;28;19905;-72
2022/10/19 07:04:28;;;;;;;;;;;8.00;99.90;;;;;;5072417;28;20260;-71
2022/10/19 07:06:54;;;;;;;;;;;8.10;99.90;;;;;;5073228;28;20298;-72
2022/10/19 07:09:21;;;;;;;;;;;8.20;99.90;;;;;;5073373;28;20008;-69
2022/10/19 07:11:47;;;;;;;;;;;8.30;99.90;;;;;;5072821;28;19912;-68
2022/10/19 07:14:12;;;;;;;;;;;8.50;99.90;;;;;;5073048;28;19916;-70
2022/10/19 07:16:37;;;;;;;;;;;8.60;99.90;;;;;;5072823;28;19908;-71
2022/10/19 07:19:03;;;;;;;;;;;8.70;99.90;;;;;;5072745;28;19952;-72
2022/10/19 07:21:28;;;;;;;;;;;8.90;99.90;;;;;;5068032;28;19928;-71
2022/10/19 07:23:54;;;;;;;;;;;9.00;99.90;;;;;;5067654;28;19920;-71
2022/10/19 07:26:25;;;;;;;;;;;9.20;99.90;;;;;;5072955;28;19962;-71
2022/10/19 07:28:51;;;;;;;;;;;9.40;99.90;;;;;;5072749;28;19917;-72
2022/10/19 07:31:19;;;;;;;;;;;9.50;99.90;;;;;;5072747;28;20263;-71
2022/10/19 07:33:44;;;;;;;;;;;9.70;99.90;;;;;;5072822;28;19940;-70
2022/10/19 07:36:12;;;;;;;;;;;9.80;99.90;;;;;;5072798;28;20353;-71
2022/10/19 07:38:37;;;;;;;;;;;10.00;99.90;;;;;;5072515;28;19913;-70
2022/10/19 07:41:05;;;;;;;;;;;10.10;99.90;;;;;;5054637;28;19905;-69
2022/10/19 07:43:31;;;;;;;;;;;10.20;99.90;;;;;;5072370;28;19999;-71
2022/10/19 07:45:57;;;;;;;;;;;10.40;99.90;;;;;;5072603;28;19915;-68
2022/10/19 07:48:23;;;;;;;;;;;10.50;99.90;;;;;;5072571;28;20332;-69
2022/10/19 07:50:48;;;;;;;;;;;10.60;99.90;;;;;;5074443;28;19911;-69
2022/10/19 07:53:14;;;;;;;;;;;10.80;99.90;;;;;;5076328;28;19951;-68
2022/10/19 07:55:39;;;;;;;;;;;10.90;99.90;;;;;;5076285;28;19904;-71
2022/10/19 07:58:05;;;;;;;;;;;11.10;99.90;;;;;;5076206;28;20303;-71
2022/10/19 08:00:30;;;;;;;;;;;11.20;99.90;;;;;;5076049;28;19909;-70
2022/10/19 08:02:56;;;;;;;;;;;11.30;99.90;;;;;;5076279;28;19916;-68
2022/10/19 08:05:21;;;;;;;;;;;11.50;99.90;;;;;;5076055;28;19915;-71
2022/10/19 08:07:47;;;;;;;;;;;11.60;99.90;;;;;;5076427;28;19931;-69
2022/10/19 08:10:12;;;;;;;;;;;11.70;99.90;;;;;;5076202;28;19905;-71
2022/10/19 08:12:37;;;;;;;;;;;11.90;99.90;;;;;;5075408;28;20003;-68
2022/10/19 08:15:05;;;;;;;;;;;12.10;99.90;;;;;;5075958;28;20344;-69
2022/10/19 08:17:34;;;;;;;;;;;12.30;99.90;;;;;;5057892;28;19927;-70
2022/10/19 08:19:59;;;;;;;;;;;12.50;99.90;;;;;;5075942;28;19997;-70
2022/10/19 08:22:25;;;;;;;;;;;12.70;99.90;;;;;;5075841;28;19948;-71
2022/10/19 08:24:50;;;;;;;;;;;12.90;99.90;;;;;;5057862;28;19905;-70
2022/10/19 08:27:15;;;;;;;;;;;13.30;99.90;;;;;;5075317;28;19908;-71
2022/10/19 08:29:41;;;;;;;;;;;13.70;99.90;;;;;;5075756;28;19970;-68
2022/10/19 08:32:07;;;;;;;;;;;14.20;99.90;;;;;;5075788;28;19914;-69
2022/10/19 08:34:32;;;;;;;;;;;14.70;99.90;;;;;;5075677;28;19915;-70
2022/10/19 08:37:00;;;;;;;;;;;15.20;99.90;;;;;;5075649;28;19995;-69
2022/10/19 08:39:26;;;;;;;;;;;15.90;99.90;;;;;;5075719;28;20132;-68
2022/10/19 08:41:58;;;;;;;;;;;16.50;99.90;;;;;;5075546;28;19909;-68
2022/10/19 08:44:23;;;;;;;;;;;17.20;99.90;;;;;;5075359;28;19905;-70
2022/10/19 08:46:55;;;;;;;;;;;17.80;99.90;;;;;;5075350;28;19904;-72
2022/10/19 08:49:22;;;;;;;;;;;18.40;99.90;;;;;;5075231;28;19958;-70
2022/10/19 08:51:51;;;;;;;;;;;18.70;99.90;;;;;;5075492;28;19916;-69
2022/10/19 08:54:17;;;;;;;;;;;19.00;99.90;;;;;;5075658;28;19908;-69
2022/10/19 08:57:00;;;;;;;;;;;19.30;99.90;;;;;;5075173;28;19973;-68
2022/10/19 08:59:29;;;;;;;;;;;19.50;99.90;;;;;;5057061;28;19926;-71
2022/10/19 09:01:54;;;;;;;;;;;19.70;99.90;;;;;;5074699;28;19943;-69
2022/10/19 09:04:28;;;;;;;;;;;20.00;99.00;;;;;;5075213;28;19940;-71
2022/10/19 09:06:59;;;;;;;;;;;20.30;97.70;;;;;;5074695;28;20391;-69
2022/10/19 09:09:27;;;;;;;;;;;20.50;97.20;;;;;;5074800;28;20356;-73
2022/10/19 09:11:55;;;;;;;;;;;20.70;96.20;;;;;;5075245;28;19939;-71
2022/10/19 09:14:30;;;;;;;;;;;20.90;96.10;;;;;;5056591;28;19923;-72
2022/10/19 09:16:58;;;;;;;;;;;21.10;95.30;;;;;;5074530;28;19904;-69
2022/10/19 09:19:28;;;;;;;;;;;21.40;94.60;;;;;;5074390;28;19920;-70
2022/10/19 09:21:59;;;;;;;;;;;21.50;93.80;;;;;;5074756;28;19952;-72
2022/10/19 09:24:31;;;;;;;;;;;21.50;93.10;;;;;;5074702;28;19911;-69
2022/10/19 09:26:58;;;;;;;;;;;21.30;93.30;;;;;;5074734;28;19908;-71
2022/10/19 09:29:26;;;;;;;;;;;21.20;93.50;;;;;;5075021;28;19908;-72
2022/10/19 09:31:54;;;;;;;;;;;21.10;93.40;;;;;;5074616;28;19905;-69
2022/10/19 09:34:19;;;;;;;;;;;20.80;93.50;;;;;;5074459;28;20360;-71
2022/10/19 09:36:50;;;;;;;;;;;20.60;93.70;;;;;;5074464;28;19955;-71
2022/10/19 09:39:16;;;;;;;;;;;20.40;94.00;;;;;;5074473;28;19913;-71
2022/10/19 09:41:53;;;;;;;;;;;20.40;93.90;;;;;;5074406;28;19938;-70
2022/10/19 09:44:18;;;;;;;;;;;20.40;93.80;;;;;;5074400;28;19934;-70
2022/10/19 09:46:50;;;;;;;;;;;20.50;93.90;;;;;;5074209;28;19915;-71
2022/10/19 09:49:36;;;;;;;;;;;20.60;93.60;;;;;;5074312;28;19912;-69
2022/10/19 09:52:01;;;;;;;;;;;20.80;94.10;;;;;;5073620;28;19912;-72
2022/10/19 09:54:35;;;;;;;;;;;21.00;93.60;;;;;;5073799;28;19905;-71
2022/10/19 09:57:00;;;;;;;;;;;21.30;92.90;;;;;;5073892;28;20011;-72
2022/10/19 09:59:28;;;;;;;;;;;21.60;92.40;;;;;;5073554;28;20342;-69
2022/10/19 10:02:03;;;;;;;;;;;21.60;92.40;;;;;;5074000;28;19904;-68
2022/10/19 10:04:35;;;;;;;;;;;21.60;92.30;;;;;;5074125;28;19916;-69
2022/10/19 10:07:02;;;;;;;;;;;21.40;92.10;;;;;;5073986;28;19905;-71
2022/10/19 10:09:28;;;;;;;;;;;21.20;92.30;;;;;;5073456;28;19999;-71
2022/10/19 10:11:55;;;;;;;;;;;21.10;92.40;;;;;;5073707;28;20371;-71
2022/10/19 10:14:32;;;;;;;;;;;21.10;92.60;;;;;;5073118;28;20260;-71
2022/10/19 10:17:05;;;;;;;;;;;21.00;92.30;;;;;;5073585;28;19957;-71
2022/10/19 10:19:32;;;;;;;;;;;20.80;92.40;;;;;;5073798;28;19963;-70
2022/10/19 10:21:58;;;;;;;;;;;20.60;92.70;;;;;;5073388;28;19956;-70
2022/10/19 10:24:30;;;;;;;;;;;20.60;93.00;;;;;;5073555;28;19909;-70
2022/10/19 10:27:04;;;;;;;;;;;20.70;93.00;;;;;;5055559;28;19949;-72
2022/10/19 10:29:33;;;;;;;;;;;20.80;92.90;;;;;;5073313;28;19909;-70
2022/10/19 10:32:11;;;;;;;;;;;21.10;92.60;;;;;;5073147;28;19931;-68
2022/10/19 10:34:37;;;;;;;;;;;21.20;92.20;;;;;;5073224;28;20356;-71
2022/10/19 10:37:04;;;;;;;;;;;21.20;92.30;;;;;;5073333;28;19965;-70
2022/10/19 10:39:31;;;;;;;;;;;21.20;91.80;;;;;;5055115;28;20021;-69
2022/10/19 10:42:00;;;;;;;;;;;21.00;92.00;;;;;;5073067;28;19908;-71
2022/10/19 10:44:30;;;;;;;;;;;20.90;92.20;;;;;;5073358;28;20005;-70
2022/10/19 10:46:57;;;;;;;;;;;21.00;92.10;;;;;;5072954;28;19926;-70
2022/10/19 10:49:26;;;;;;;;;;;21.00;92.00;;;;;;5073433;28;20286;-69
2022/10/19 10:51:54;;;;;;;;;;;21.30;92.00;;;;;;5073610;28;19904;-69
2022/10/19 10:54:21;;;;;;;;;;;21.90;91.60;;;;;;5073180;28;19911;-71
2022/10/19 10:57:11;;;;;;;;;;;22.20;90.80;;;;;;5073259;28;19904;-70
2022/10/19 10:59:56;;;;;;;;;;;22.20;90.50;;;;;;5073008;28;19920;-71
2022/10/19 11:02:21;;;;;;;;;;;22.00;90.70;;;;;;5055001;28;19904;-70
2022/10/19 11:04:50;;;;;;;;;;;22.00;91.10;;;;;;5073226;28;19950;-68
2022/10/19 11:07:20;;;;;;;;;;;22.10;90.70;;;;;;5073208;28;20135;-69
2022/10/19 11:09:53;;;;;;;;;;;22.30;90.90;;;;;;5072778;28;19998;-70
2022/10/19 11:12:23;;;;;;;;;;;22.30;90.20;;;;;;5072756;28;19904;-70
2022/10/19 11:14:52;;;;;;;;;;;22.10;90.20;;;;;;5072790;28;20393;-72
2022/10/19 11:17:22;;;;;;;;;;;22.10;90.50;;;;;;5072878;28;20004;-72
2022/10/19 11:19:51;;;;;;;;;;;22.30;90.60;;;;;;5072529;28;19905;-70
2022/10/19 11:22:45;;;;;;;;;;;22.50;90.20;;;;;;5072996;28;19947;-70
2022/10/19 11:25:20;;;;;;;;;;;22.70;89.50;;;;;;5060487;28;19904;-71
2022/10/19 11:28:01;;;;;;;;;;;22.90;89.30;;;;;;5077091;28;19998;-70
2022/10/19 11:30:28;;;;;;;;;;;23.00;88.00;;;;;;5077138;28;20344;-71
2022/10/19 11:32:59;;;;;;;;;;;22.80;87.80;;;;;;5076765;28;19927;-69
2022/10/19 11:35:31;;;;;;;;;;;22.60;89.10;;;;;;5076722;28;19948;-71
2022/10/19 11:38:15;;;;;;;;;;;22.70;89.00;;;;;;5076903;28;19916;-70
2022/10/19 11:40:49;;;;;;;;;;;22.70;87.90;;;;;;5076386;28;19905;-72
2022/10/19 11:43:21;;;;;;;;;;;22.50;88.00;;;;;;5076745;28;19909;-70
2022/10/19 11:45:54;;;;;;;;;;;22.40;89.00;;;;;;5076779;28;19908;-70
2022/10/19 11:48:34;;;;;;;;;;;22.40;88.60;;;;;;5076835;28;19908;-70
2022/10/19 11:51:00;;;;;;;;;;;22.30;88.60;;;;;;5076460;28;19908;-73
2022/10/19 11:53:35;;;;;;;;;;;22.20;88.10;;;;;;5075804;28;19920;-73
2022/10/19 11:56:18;;;;;;;;;;;22.00;88.70;;;;;;5076500;28;20049;-71
2022/10/19 11:58:50;;;;;;;;;;;21.90;90.10;;;;;;5076156;28;19912;-74
2022/10/19 12:01:48;;;;;;;;;;;22.10;90.30;;;;;;5076221;28;19994;-73
2022/10/19 12:04:13;;;;;;;;;;;22.20;89.90;;;;;;5041871;28;20407;-71
2022/10/19 12:06:39;;;;;;;;;;;22.20;89.40;;;;;;5076229;28;20016;-73
2022/10/19 12:09:20;;;;;;;;;;;22.20;90.10;;;;;;5076134;28;20325;-73
2022/10/19 12:12:00;;;;;;;;;;;22.20;89.30;;;;;;5076071;28;19904;-72
2022/10/19 12:14:29;;;;;;;;;;;22.10;88.70;;;;;;5057713;28;20350;-73
2022/10/19 12:16:57;;;;;;;;;;;22.00;89.00;;;;;;5075989;28;19908;-72
2022/10/19 12:19:25;;;;;;;;;;;21.80;88.70;;;;;;5075601;28;19920;-70
2022/10/19 12:21:53;;;;;;;;;;;21.60;90.10;;;;;;5075962;28;19908;-70
2022/10/19 12:24:21;;;;;;;;;;;21.50;90.00;;;;;;5075616;28;19912;-73
2022/10/19 12:26:48;;;;;;;;;;;21.40;90.10;;;;;;5075741;28;19943;-73
2022/10/19 12:29:20;;;;;;;;;;;21.40;90.30;;;;;;5075752;28;19999;-70
2022/10/19 12:31:45;;;;;;;;;;;21.30;90.40;;;;;;5075458;28;19916;-71
2022/10/19 12:34:17;;;;;;;;;;;21.10;90.50;;;;;;5075678;28;19904;-70
2022/10/19 12:36:49;;;;;;;;;;;21.00;90.70;;;;;;5074735;28;19928;-69
2022/10/19 12:39:20;;;;;;;;;;;21.00;90.50;;;;;;5075568;28;19995;-69
2022/10/19 12:42:09;;;;;;;;;;;20.90;90.60;;;;;;5075756;28;20356;-69
2022/10/19 12:44:49;;;;;;;;;;;20.80;91.00;;;;;;5075439;28;19974;-70
2022/10/19 12:47:18;;;;;;;;;;;20.80;91.10;;;;;;5075380;28;19909;-70
2022/10/19 12:49:45;;;;;;;;;;;20.70;91.00;;;;;;5075332;28;19911;-69
2022/10/19 12:52:12;;;;;;;;;;;20.60;91.00;;;;;;5075294;28;20371;-72
2022/10/19 12:54:39;;;;;;;;;;;20.40;91.60;;;;;;5075241;28;19971;-69
2022/10/19 12:57:19;;;;;;;;;;;20.40;91.40;;;;;;5075359;28;20007;-71
2022/10/19 12:59:45;;;;;;;;;;;20.30;91.60;;;;;;5075295;28;19999;-71
2022/10/19 13:02:24;;;;;;;;;;;20.20;92.10;;;;;;5075022;28;20012;-69
2022/10/19 13:04:53;;;;;;;;;;;20.10;92.00;;;;;;5075123;28;19911;-72
2022/10/19 13:07:19;;;;;;;;;;;20.00;92.40;;;;;;5075022;28;19905;-72
2022/10/19 13:09:45;;;;;;;;;;;19.90;92.40;;;;;;5074653;28;20348;-73
2022/10/19 13:12:17;;;;;;;;;;;19.60;92.70;;;;;;5073880;28;19908;-71
2022/10/19 13:14:44;;;;;;;;;;;19.50;93.00;;;;;;5074870;28;19967;-72
2022/10/19 13:17:10;;;;;;;;;;;19.40;93.30;;;;;;5074882;28;19904;-70
2022/10/19 13:19:35;;;;;;;;;;;19.30;93.30;;;;;;5073398;28;19918;-71
2022/10/19 13:22:00;;;;;;;;;;;19.10;93.70;;;;;;5074324;28;19915;-73
2022/10/19 13:24:26;;;;;;;;;;;18.90;93.70;;;;;;5074533;28;19920;-72
2022/10/19 13:27:01;;;;;;;;;;;18.80;93.90;;;;;;5074935;28;19951;-71
2022/10/19 13:29:37;;;;;;;;;;;18.70;94.00;;;;;;5074356;28;19931;-71
2022/10/19 13:32:21;;;;;;;;;;;18.50;94.20;;;;;;5074791;28;19939;-73
2022/10/19 13:34:47;;;;;;;;;;;18.30;94.30;;;;;;5073720;28;20336;-71
2022/10/19 13:37:15;;;;;;;;;;;18.10;94.70;;;;;;5074200;28;19905;-73
2022/10/19 13:39:40;;;;;;;;;;;17.90;95.00;;;;;;5073913;28;19912;-71
2022/10/19 13:42:21;;;;;;;;;;;17.80;95.40;;;;;;5074130;28;20449;-70
2022/10/19 13:44:46;;;;;;;;;;;17.70;95.90;;;;;;5072825;28;19948;-72
2022/10/19 13:47:33;;;;;;;;;;;17.70;96.20;;;;;;5074136;28;20340;-72
2022/10/19 13:50:01;;;;;;;;;;;17.70;95.70;;;;;;5074231;28;19904;-70
2022/10/19 13:52:32;;;;;;;;;;;17.60;95.80;;;;;;5072609;28;19908;-70
2022/10/19 13:55:16;;;;;;;;;;;17.50;95.80;;;;;;5073910;28;19919;-72
2022/10/19 13:57:44;;;;;;;;;;;17.40;96.20;;;;;;5073970;28;19917;-72
2022/10/19 14:00:20;;;;;;;;;;;17.20;96.60;;;;;;5074052;28;19936;-71
2022/10/19 14:02:51;;;;;;;;;;;17.10;97.00;;;;;;5073816;28;19904;-70
2022/10/19 14:05:35;;;;;;;;;;;17.10;97.20;;;;;;5073797;28;19912;-68
2022/10/19 14:08:07;;;;;;;;;;;17.00;97.10;;;;;;5073741;28;20366;-69
2022/10/19 14:10:33;;;;;;;;;;;16.90;97.20;;;;;;5073738;28;19904;-71
2022/10/19 14:12:59;;;;;;;;;;;16.80;97.70;;;;;;5073458;28;19938;-72
2022/10/19 14:15:29;;;;;;;;;;;16.80;97.60;;;;;;5073741;28;20321;-71
2022/10/19 14:17:55;;;;;;;;;;;16.80;97.60;;;;;;5073581;28;19912;-71
2022/10/19 14:20:34;;;;;;;;;;;16.70;97.60;;;;;;5073598;28;19904;-70
2022/10/19 14:23:16;;;;;;;;;;;16.70;97.70;;;;;;5073618;28;19904;-72
2022/10/19 14:25:48;;;;;;;;;;;16.80;97.90;;;;;;5073417;28;19915;-70
2022/10/19 14:28:15;;;;;;;;;;;16.90;98.30;;;;;;5073594;28;19912;-70
2022/10/19 14:30:41;;;;;;;;;;;17.00;97.90;;;;;;5073523;28;19905;-72
2022/10/19 14:33:08;;;;;;;;;;;17.10;98.00;;;;;;5073408;28;20245;-70